GMMN

Mohammed V International Airport

Casablanca, Morocco
METAR GMMN 192300Z 02005KT 9999 FEW016 23/21 Q1020 NOSIG
Observed Flight Rules
Sep-19 @ 23:00 UTC (11 minutes ago) Visual Flight Rules
Wind Visibility Clouds
20° at 5 knots 10,000+ meters
  • Few at 1,600' AGL
Temperatures Readings
Current 23°C / 73°F
Dewpoint 21°C / 70°F
Humidity 89%
Altimeter 30.12" Hg
Pressure 1020 hPa
Elevation 206
METAR GMMN 192300Z 02005KT 9999 FEW016 23/21 Q1020 NOSIG
Observed Flight Rules
Sep-19 @ 23:00 UTC
(11 minutes ago)
VFR
Wind Visibility
20° at 5 knots 10,000+ meters
Clouds
  • Few at 1,600' AGL
Temperature Dewpoint
23°C / 73°F 21°C / 70°F
Humidity Altimeter Pressure
89% 30.12" Hg 1020 hPa